KBTV/BTV METAR and TAF weather

Enter ICAO airport designator
Station Type Date Time Source
KBTV METAR 2019/06/17 11:54 UTC NOAA

KBTV 171154Z 01003KT 10SM FEW030 FEW200 16/11 A3000 RMK AO2 SLP158 MTNS E-SE OBSCD T01560111 10156 20100 51018


Station Type Date Time Source
KBTV Decoded METAR 2019/06/17 11:54 UTC NOAA

BURLINGTON INTERNATIONAL, VT, United States (KBTV) 44-28N 73-09W 105M
Jun 17, 2019 - 07:54 AM EDT / 2019.06.17 1154 UTC
Wind: from the N (010 degrees) at 3 MPH (3 KT):0
Visibility: 10 mile(s):0
Sky conditions: mostly clear
Temperature: 60.1 F (15.6 C)
Dew Point: 52.0 F (11.1 C)
Relative Humidity: 74%
Pressure (altimeter): 30 in. Hg (1015 hPa)
Pressure tendency: 0.05 inches (1.8 hPa) higher than three hours ago
ob: KBTV 171154Z 01003KT 10SM FEW030 FEW200 16/11 A3000 RMK AO2 SLP158 MTNS E-SE OBSCD T01560111 10156 20100 51018
cycle: 12

Station Type Date Time Source
KBTV TAF 2019/06/17 12:24 UTC NOAA

TAF KBTV 171120Z 1712/1812 32005KT P6SM FEW250
FM180600 00000KT P6SM SCT120

Example: see airport list